sensor_id;sensor_type;location;lat;lon;timestamp;P1;durP1;ratioP1;P2;durP2;ratioP2
21103;SDS011;10710;53.398;-1.514;2024-02-16T00:01:16;2.03;;;1.00;;
21103;SDS011;10710;53.398;-1.514;2024-02-16T00:04:00;1.38;;;1.10;;
21103;SDS011;10710;53.398;-1.514;2024-02-16T00:06:44;2.00;;;1.25;;
21103;SDS011;10710;53.398;-1.514;2024-02-16T00:09:29;3.05;;;1.20;;
21103;SDS011;10710;53.398;-1.514;2024-02-16T00:12:14;2.07;;;1.20;;
21103;SDS011;10710;53.398;-1.514;2024-02-16T00:14:59;2.08;;;1.40;;
21103;SDS011;10710;53.398;-1.514;2024-02-16T00:17:44;2.10;;;1.40;;
21103;SDS011;10710;53.398;-1.514;2024-02-16T00:20:28;2.15;;;1.38;;
21103;SDS011;10710;53.398;-1.514;2024-02-16T00:23:14;1.20;;;0.75;;
21103;SDS011;10710;53.398;-1.514;2024-02-16T00:25:58;2.40;;;1.10;;
21103;SDS011;10710;53.398;-1.514;2024-02-16T00:28:43;1.10;;;0.90;;
21103;SDS011;10710;53.398;-1.514;2024-02-16T00:31:27;1.77;;;0.90;;
21103;SDS011;10710;53.398;-1.514;2024-02-16T00:34:12;1.60;;;1.13;;
21103;SDS011;10710;53.398;-1.514;2024-02-16T00:36:56;1.27;;;0.90;;
21103;SDS011;10710;53.398;-1.514;2024-02-16T00:39:40;1.27;;;0.80;;
21103;SDS011;10710;53.398;-1.514;2024-02-16T00:42:25;1.10;;;0.60;;
21103;SDS011;10710;53.398;-1.514;2024-02-16T00:45:11;3.28;;;1.10;;
21103;SDS011;10710;53.398;-1.514;2024-02-16T00:47:56;1.13;;;0.87;;
21103;SDS011;10710;53.398;-1.514;2024-02-16T00:50:41;0.85;;;0.70;;
21103;SDS011;10710;53.398;-1.514;2024-02-16T00:53:32;1.02;;;0.73;;
21103;SDS011;10710;53.398;-1.514;2024-02-16T00:56:22;1.52;;;0.60;;
21103;SDS011;10710;53.398;-1.514;2024-02-16T00:59:07;2.58;;;0.90;;
21103;SDS011;10710;53.398;-1.514;2024-02-16T01:01:53;0.80;;;0.70;;
21103;SDS011;10710;53.398;-1.514;2024-02-16T01:04:37;1.10;;;0.85;;
21103;SDS011;10710;53.398;-1.514;2024-02-16T01:07:21;2.25;;;0.60;;
21103;SDS011;10710;53.398;-1.514;2024-02-16T01:10:06;1.10;;;0.70;;
21103;SDS011;10710;53.398;-1.514;2024-02-16T01:12:51;1.77;;;0.95;;
21103;SDS011;10710;53.398;-1.514;2024-02-16T01:15:36;1.48;;;0.88;;
21103;SDS011;10710;53.398;-1.514;2024-02-16T01:18:21;0.75;;;0.65;;
21103;SDS011;10710;53.398;-1.514;2024-02-16T01:21:08;0.57;;;0.57;;
21103;SDS011;10710;53.398;-1.514;2024-02-16T01:24:00;2.10;;;0.80;;
21103;SDS011;10710;53.398;-1.514;2024-02-16T01:26:57;0.83;;;0.80;;
21103;SDS011;10710;53.398;-1.514;2024-02-16T01:29:42;0.60;;;0.60;;
21103;SDS011;10710;53.398;-1.514;2024-02-16T01:32:26;0.60;;;0.60;;
21103;SDS011;10710;53.398;-1.514;2024-02-16T01:35:11;1.10;;;0.73;;
21103;SDS011;10710;53.398;-1.514;2024-02-16T01:37:55;4.50;;;0.80;;
21103;SDS011;10710;53.398;-1.514;2024-02-16T01:40:42;0.80;;;0.68;;
21103;SDS011;10710;53.398;-1.514;2024-02-16T01:43:27;1.15;;;1.05;;
21103;SDS011;10710;53.398;-1.514;2024-02-16T01:46:12;3.73;;;0.90;;
21103;SDS011;10710;53.398;-1.514;2024-02-16T01:48:57;3.13;;;0.70;;
21103;SDS011;10710;53.398;-1.514;2024-02-16T01:51:42;1.25;;;0.88;;
21103;SDS011;10710;53.398;-1.514;2024-02-16T01:54:29;0.77;;;0.73;;
21103;SDS011;10710;53.398;-1.514;2024-02-16T01:57:13;0.60;;;0.60;;
21103;SDS011;10710;53.398;-1.514;2024-02-16T01:59:58;0.80;;;0.80;;
21103;SDS011;10710;53.398;-1.514;2024-02-16T02:02:49;0.93;;;0.70;;
21103;SDS011;10710;53.398;-1.514;2024-02-16T02:05:33;0.70;;;0.70;;
21103;SDS011;10710;53.398;-1.514;2024-02-16T02:08:19;0.87;;;0.70;;
21103;SDS011;10710;53.398;-1.514;2024-02-16T02:11:03;4.57;;;0.93;;
21103;SDS011;10710;53.398;-1.514;2024-02-16T02:13:49;1.10;;;0.80;;
21103;SDS011;10710;53.398;-1.514;2024-02-16T02:16:33;2.63;;;1.27;;
21103;SDS011;10710;53.398;-1.514;2024-02-16T02:19:18;0.85;;;0.82;;
21103;SDS011;10710;53.398;-1.514;2024-02-16T02:22:05;0.80;;;0.80;;
21103;SDS011;10710;53.398;-1.514;2024-02-16T02:25:10;3.80;;;1.20;;
21103;SDS011;10710;53.398;-1.514;2024-02-16T02:27:58;3.42;;;2.10;;
21103;SDS011;10710;53.398;-1.514;2024-02-16T08:03:35;8.35;;;1.10;;
21103;SDS011;10710;53.398;-1.514;2024-02-16T08:06:24;4.80;;;1.33;;
21103;SDS011;10710;53.398;-1.514;2024-02-16T08:09:12;2.90;;;0.82;;
21103;SDS011;10710;53.398;-1.514;2024-02-16T08:11:59;3.88;;;0.70;;
21103;SDS011;10710;53.398;-1.514;2024-02-16T08:14:49;2.30;;;1.73;;
21103;SDS011;10710;53.398;-1.514;2024-02-16T08:17:34;3.03;;;1.33;;
21103;SDS011;10710;53.398;-1.514;2024-02-16T08:20:19;6.85;;;1.20;;
21103;SDS011;10710;53.398;-1.514;2024-02-16T08:23:04;3.88;;;1.23;;
21103;SDS011;10710;53.398;-1.514;2024-02-16T08:25:49;2.13;;;1.02;;
21103;SDS011;10710;53.398;-1.514;2024-02-16T08:28:34;1.40;;;0.88;;
21103;SDS011;10710;53.398;-1.514;2024-02-16T08:31:18;3.25;;;1.40;;
21103;SDS011;10710;53.398;-1.514;2024-02-16T08:34:03;7.28;;;1.65;;
21103;SDS011;10710;53.398;-1.514;2024-02-16T08:36:50;1.65;;;0.90;;
21103;SDS011;10710;53.398;-1.514;2024-02-16T08:39:38;3.55;;;1.60;;
21103;SDS011;10710;53.398;-1.514;2024-02-16T08:42:25;4.20;;;1.30;;
21103;SDS011;10710;53.398;-1.514;2024-02-16T08:45:10;5.55;;;1.85;;
21103;SDS011;10710;53.398;-1.514;2024-02-16T08:47:56;4.70;;;0.90;;
21103;SDS011;10710;53.398;-1.514;2024-02-16T08:50:41;3.25;;;1.20;;
21103;SDS011;10710;53.398;-1.514;2024-02-16T08:53:25;5.10;;;1.55;;
21103;SDS011;10710;53.398;-1.514;2024-02-16T08:56:11;10.25;;;1.13;;
21103;SDS011;10710;53.398;-1.514;2024-02-16T08:58:56;1.33;;;0.70;;
21103;SDS011;10710;53.398;-1.514;2024-02-16T09:01:41;0.80;;;0.80;;
21103;SDS011;10710;53.398;-1.514;2024-02-16T09:04:26;2.78;;;1.00;;
21103;SDS011;10710;53.398;-1.514;2024-02-16T09:07:11;4.37;;;1.23;;
21103;SDS011;10710;53.398;-1.514;2024-02-16T09:09:56;1.27;;;0.95;;
21103;SDS011;10710;53.398;-1.514;2024-02-16T09:12:40;4.03;;;1.03;;
21103;SDS011;10710;53.398;-1.514;2024-02-16T09:15:25;4.65;;;0.80;;
21103;SDS011;10710;53.398;-1.514;2024-02-16T09:18:09;5.20;;;1.33;;
21103;SDS011;10710;53.398;-1.514;2024-02-16T09:20:54;5.35;;;1.10;;
21103;SDS011;10710;53.398;-1.514;2024-02-16T09:23:42;2.33;;;1.38;;
21103;SDS011;10710;53.398;-1.514;2024-02-16T09:26:29;2.30;;;1.45;;
21103;SDS011;10710;53.398;-1.514;2024-02-16T20:30:25;0.70;;;0.70;;
21103;SDS011;10710;53.398;-1.514;2024-02-16T20:33:11;0.80;;;0.77;;
21103;SDS011;10710;53.398;-1.514;2024-02-16T20:35:56;1.38;;;0.77;;
21103;SDS011;10710;53.398;-1.514;2024-02-16T20:38:41;4.68;;;1.35;;
21103;SDS011;10710;53.398;-1.514;2024-02-16T20:41:28;0.50;;;0.50;;
21103;SDS011;10710;53.398;-1.514;2024-02-16T20:44:16;2.50;;;1.23;;
21103;SDS011;10710;53.398;-1.514;2024-02-16T20:47:05;0.90;;;0.70;;
21103;SDS011;10710;53.398;-1.514;2024-02-16T20:49:51;2.40;;;0.98;;
21103;SDS011;10710;53.398;-1.514;2024-02-16T20:52:39;1.10;;;0.90;;
21103;SDS011;10710;53.398;-1.514;2024-02-16T20:55:24;1.20;;;0.90;;
21103;SDS011;10710;53.398;-1.514;2024-02-16T20:58:14;3.22;;;1.73;;
21103;SDS011;10710;53.398;-1.514;2024-02-16T21:00:59;11.85;;;3.47;;
21103;SDS011;10710;53.398;-1.514;2024-02-16T21:03:47;6.87;;;3.30;;
